sensor_id;sensor_type;location;lat;lon;timestamp;pressure;altitude;pressure_sealevel;temperature;humidity
68380;BME280;57711;53.196;19.638;2022-12-29T00:00:25;99650.34;;;5.24;74.85
68380;BME280;57711;53.196;19.638;2022-12-29T00:03:12;99654.90;;;5.25;74.93
68380;BME280;57711;53.196;19.638;2022-12-29T00:05:39;99653.39;;;5.26;74.88
68380;BME280;57711;53.196;19.638;2022-12-29T00:08:06;99654.89;;;5.27;74.92
68380;BME280;57711;53.196;19.638;2022-12-29T00:10:33;99656.18;;;5.27;74.79
68380;BME280;57711;53.196;19.638;2022-12-29T00:13:00;99658.86;;;5.27;74.96
68380;BME280;57711;53.196;19.638;2022-12-29T00:15:46;99661.52;;;5.28;74.91
68380;BME280;57711;53.196;19.638;2022-12-29T00:18:13;99658.74;;;5.29;74.90
68380;BME280;57711;53.196;19.638;2022-12-29T00:20:41;99661.22;;;5.29;74.95
68380;BME280;57711;53.196;19.638;2022-12-29T00:23:26;99651.40;;;5.28;74.93
68380;BME280;57711;53.196;19.638;2022-12-29T00:26:14;99648.63;;;5.27;74.84
68380;BME280;57711;53.196;19.638;2022-12-29T00:29:00;99649.70;;;5.27;74.85
68380;BME280;57711;53.196;19.638;2022-12-29T00:31:47;99648.35;;;5.29;74.87
68380;BME280;57711;53.196;19.638;2022-12-29T00:34:33;99646.45;;;5.30;74.82
68380;BME280;57711;53.196;19.638;2022-12-29T00:37:19;99648.96;;;5.30;74.86
68380;BME280;57711;53.196;19.638;2022-12-29T00:40:07;99646.39;;;5.29;74.93
68380;BME280;57711;53.196;19.638;2022-12-29T00:42:53;99646.52;;;5.29;74.85
68380;BME280;57711;53.196;19.638;2022-12-29T00:45:41;99643.64;;;5.29;74.85
68380;BME280;57711;53.196;19.638;2022-12-29T00:48:08;99640.83;;;5.29;74.91
68380;BME280;57711;53.196;19.638;2022-12-29T00:50:35;99639.64;;;5.28;74.97
68380;BME280;57711;53.196;19.638;2022-12-29T00:53:03;99636.57;;;5.28;75.03
68380;BME280;57711;53.196;19.638;2022-12-29T00:55:30;99631.24;;;5.27;74.96
68380;BME280;57711;53.196;19.638;2022-12-29T00:57:57;99630.17;;;5.27;75.07
68380;BME280;57711;53.196;19.638;2022-12-29T01:00:25;99627.34;;;5.27;74.99
68380;BME280;57711;53.196;19.638;2022-12-29T01:02:52;99625.80;;;5.26;75.14
68380;BME280;57711;53.196;19.638;2022-12-29T01:05:19;99623.34;;;5.25;75.11
68380;BME280;57711;53.196;19.638;2022-12-29T01:07:46;99621.19;;;5.25;74.93
68380;BME280;57711;53.196;19.638;2022-12-29T01:10:13;99619.58;;;5.25;75.03
68380;BME280;57711;53.196;19.638;2022-12-29T01:12:41;99618.20;;;5.25;75.22
68380;BME280;57711;53.196;19.638;2022-12-29T01:15:12;99616.70;;;5.23;75.06
68380;BME280;57711;53.196;19.638;2022-12-29T01:17:41;99616.90;;;5.21;74.98
68380;BME280;57711;53.196;19.638;2022-12-29T01:20:08;99616.13;;;5.19;75.06
68380;BME280;57711;53.196;19.638;2022-12-29T01:22:36;99609.27;;;5.18;75.06
68380;BME280;57711;53.196;19.638;2022-12-29T01:25:04;99606.75;;;5.18;75.07
68380;BME280;57711;53.196;19.638;2022-12-29T01:27:33;99603.55;;;5.17;75.05
68380;BME280;57711;53.196;19.638;2022-12-29T01:30:00;99604.69;;;5.16;75.18
68380;BME280;57711;53.196;19.638;2022-12-29T01:32:27;99600.21;;;5.14;75.10
68380;BME280;57711;53.196;19.638;2022-12-29T01:34:54;99598.64;;;5.14;75.10
68380;BME280;57711;53.196;19.638;2022-12-29T01:37:21;99592.13;;;5.12;75.08
68380;BME280;57711;53.196;19.638;2022-12-29T01:39:48;99584.02;;;5.13;75.02
68380;BME280;57711;53.196;19.638;2022-12-29T01:42:17;99585.17;;;5.11;75.21
68380;BME280;57711;53.196;19.638;2022-12-29T01:47:38;99587.13;;;5.07;75.08
68380;BME280;57711;53.196;19.638;2022-12-29T01:50:14;99588.96;;;5.07;75.15
68380;BME280;57711;53.196;19.638;2022-12-29T01:52:51;99591.20;;;5.05;75.20
68380;BME280;57711;53.196;19.638;2022-12-29T01:55:20;99585.86;;;5.05;75.26
68380;BME280;57711;53.196;19.638;2022-12-29T01:57:51;99586.40;;;5.03;75.19
68380;BME280;57711;53.196;19.638;2022-12-29T02:00:19;99587.66;;;5.00;74.96
68380;BME280;57711;53.196;19.638;2022-12-29T02:02:50;99583.77;;;5.00;75.27
68380;BME280;57711;53.196;19.638;2022-12-29T02:05:32;99582.25;;;5.01;75.15
68380;BME280;57711;53.196;19.638;2022-12-29T02:08:01;99580.54;;;5.02;74.93
68380;BME280;57711;53.196;19.638;2022-12-29T02:10:30;99578.71;;;5.02;75.06
68380;BME280;57711;53.196;19.638;2022-12-29T02:12:59;99584.86;;;5.02;75.19
68380;BME280;57711;53.196;19.638;2022-12-29T02:18:08;99587.91;;;5.01;75.27
68380;BME280;57711;53.196;19.638;2022-12-29T02:26:33;99585.27;;;5.01;75.11
68380;BME280;57711;53.196;19.638;2022-12-29T02:29:34;99582.19;;;4.99;75.29
68380;BME280;57711;53.196;19.638;2022-12-29T02:34:37;99582.78;;;5.01;75.29
68380;BME280;57711;53.196;19.638;2022-12-29T02:37:34;99582.73;;;5.01;75.26
68380;BME280;57711;53.196;19.638;2022-12-29T02:40:06;99574.60;;;5.02;75.23
68380;BME280;57711;53.196;19.638;2022-12-29T02:48:31;99567.42;;;5.00;75.01
68380;BME280;57711;53.196;19.638;2022-12-29T02:51:02;99563.20;;;5.01;75.32
68380;BME280;57711;53.196;19.638;2022-12-29T02:53:32;99562.55;;;5.01;75.18
68380;BME280;57711;53.196;19.638;2022-12-29T02:56:19;99556.67;;;5.00;75.32
68380;BME280;57711;53.196;19.638;2022-12-29T02:58:46;99557.66;;;5.01;75.21
68380;BME280;57711;53.196;19.638;2022-12-29T03:07:14;99545.70;;;5.05;75.26
68380;BME280;57711;53.196;19.638;2022-12-29T03:12:31;99527.48;;;5.05;75.27
68380;BME280;57711;53.196;19.638;2022-12-29T03:15:28;99519.29;;;5.06;75.14
68380;BME280;57711;53.196;19.638;2022-12-29T03:18:22;99530.15;;;5.07;75.23
68380;BME280;57711;53.196;19.638;2022-12-29T03:20:53;99528.24;;;5.06;75.40
68380;BME280;57711;53.196;19.638;2022-12-29T03:23:22;99527.82;;;5.05;75.23
68380;BME280;57711;53.196;19.638;2022-12-29T03:25:56;99528.02;;;5.04;75.21
68380;BME280;57711;53.196;19.638;2022-12-29T03:28:34;99525.59;;;5.06;75.19
68380;BME280;57711;53.196;19.638;2022-12-29T03:31:06;99527.57;;;5.08;75.30
68380;BME280;57711;53.196;19.638;2022-12-29T03:33:36;99532.66;;;5.09;75.13
68380;BME280;57711;53.196;19.638;2022-12-29T03:36:08;99526.02;;;5.09;75.21
68380;BME280;57711;53.196;19.638;2022-12-29T03:39:08;99521.94;;;5.09;75.21
68380;BME280;57711;53.196;19.638;2022-12-29T03:41:41;99522.18;;;5.10;75.21
68380;BME280;57711;53.196;19.638;2022-12-29T03:44:10;99519.33;;;5.10;75.31
68380;BME280;57711;53.196;19.638;2022-12-29T03:46:38;99518.77;;;5.10;75.07
68380;BME280;57711;53.196;19.638;2022-12-29T03:49:06;99509.70;;;5.10;75.12
68380;BME280;57711;53.196;19.638;2022-12-29T03:51:33;99506.84;;;5.07;75.33
68380;BME280;57711;53.196;19.638;2022-12-29T03:54:02;99505.23;;;5.07;75.14
68380;BME280;57711;53.196;19.638;2022-12-29T03:56:29;99509.48;;;5.08;75.17
68380;BME280;57711;53.196;19.638;2022-12-29T03:58:57;99511.89;;;5.09;75.28
68380;BME280;57711;53.196;19.638;2022-12-29T04:01:30;99507.88;;;5.08;75.19
68380;BME280;57711;53.196;19.638;2022-12-29T04:03:58;99502.55;;;5.07;75.16
68380;BME280;57711;53.196;19.638;2022-12-29T04:06:25;99501.19;;;5.08;75.25
68380;BME280;57711;53.196;19.638;2022-12-29T04:08:58;99491.90;;;5.10;75.12
68380;BME280;57711;53.196;19.638;2022-12-29T04:11:28;99492.05;;;5.11;75.11
68380;BME280;57711;53.196;19.638;2022-12-29T04:14:00;99496.55;;;5.10;75.02
68380;BME280;57711;53.196;19.638;2022-12-29T04:16:29;99493.09;;;5.09;75.17
68380;BME280;57711;53.196;19.638;2022-12-29T04:18:56;99497.13;;;5.08;75.21
68380;BME280;57711;53.196;19.638;2022-12-29T04:21:24;99499.89;;;5.09;75.15
68380;BME280;57711;53.196;19.638;2022-12-29T04:23:51;99497.34;;;5.10;75.17
68380;BME280;57711;53.196;19.638;2022-12-29T04:26:19;99494.75;;;5.08;75.06
68380;BME280;57711;53.196;19.638;2022-12-29T04:29:04;99495.47;;;5.06;75.16
68380;BME280;57711;53.196;19.638;2022-12-29T04:31:57;99491.51;;;5.02;75.19
68380;BME280;57711;53.196;19.638;2022-12-29T04:34:27;99483.63;;;5.00;75.12
68380;BME280;57711;53.196;19.638;2022-12-29T04:36:54;99485.92;;;4.98;75.10
68380;BME280;57711;53.196;19.638;2022-12-29T04:39:21;99480.61;;;4.95;75.25
68380;BME280;57711;53.196;19.638;2022-12-29T04:41:49;99481.73;;;4.94;75.23
68380;BME280;57711;53.196;19.638;2022-12-29T04:44:19;99480.63;;;4.92;75.24
68380;BME280;57711;53.196;19.638;2022-12-29T04:47:01;99484.66;;;4.90;75.20
68380;BME280;57711;53.196;19.638;2022-12-29T04:49:39;99481.00;;;4.89;75.18
68380;BME280;57711;53.196;19.638;2022-12-29T04:52:20;99480.23;;;4.90;75.22
68380;BME280;57711;53.196;19.638;2022-12-29T04:54:48;99478.87;;;4.89;75.16
68380;BME280;57711;53.196;19.638;2022-12-29T04:57:18;99479.80;;;4.89;75.11
68380;BME280;57711;53.196;19.638;2022-12-29T04:59:50;99477.08;;;4.87;75.30
68380;BME280;57711;53.196;19.638;2022-12-29T05:02:17;99475.98;;;4.85;75.22
68380;BME280;57711;53.196;19.638;2022-12-29T05:04:46;99469.30;;;4.83;75.09
68380;BME280;57711;53.196;19.638;2022-12-29T05:07:13;99468.19;;;4.84;75.24
68380;BME280;57711;53.196;19.638;2022-12-29T05:09:42;99463.58;;;4.83;75.33
68380;BME280;57711;53.196;19.638;2022-12-29T05:12:09;99461.98;;;4.81;75.14
68380;BME280;57711;53.196;19.638;2022-12-29T05:14:45;99458.28;;;4.80;75.13
68380;BME280;57711;53.196;19.638;2022-12-29T05:17:12;99461.45;;;4.81;75.21
68380;BME280;57711;53.196;19.638;2022-12-29T05:19:39;99463.05;;;4.81;75.17
68380;BME280;57711;53.196;19.638;2022-12-29T05:22:07;99462.58;;;4.82;75.16
68380;BME280;57711;53.196;19.638;2022-12-29T05:24:34;99461.35;;;4.84;75.11
68380;BME280;57711;53.196;19.638;2022-12-29T05:27:01;99453.98;;;4.85;75.19
68380;BME280;57711;53.196;19.638;2022-12-29T05:29:53;99456.61;;;4.87;75.25
68380;BME280;57711;53.196;19.638;2022-12-29T05:32:20;99451.98;;;4.90;75.22
68380;BME280;57711;53.196;19.638;2022-12-29T05:34:48;99452.48;;;4.90;75.15
68380;BME280;57711;53.196;19.638;2022-12-29T05:37:16;99446.11;;;4.91;75.12
68380;BME280;57711;53.196;19.638;2022-12-29T05:39:44;99444.69;;;4.91;75.16
68380;BME280;57711;53.196;19.638;2022-12-29T05:42:12;99437.35;;;4.91;75.20
68380;BME280;57711;53.196;19.638;2022-12-29T05:44:51;99438.83;;;4.92;75.32
68380;BME280;57711;53.196;19.638;2022-12-29T05:47:34;99447.67;;;4.97;75.16
68380;BME280;57711;53.196;19.638;2022-12-29T05:50:16;99446.01;;;5.00;75.22
68380;BME280;57711;53.196;19.638;2022-12-29T05:53:16;99446.14;;;4.98;75.12
68380;BME280;57711;53.196;19.638;2022-12-29T05:55:46;99444.94;;;4.95;75.07
68380;BME280;57711;53.196;19.638;2022-12-29T05:58:16;99446.23;;;4.95;75.10
68380;BME280;57711;53.196;19.638;2022-12-29T06:00:43;99434.90;;;4.95;74.97
68380;BME280;57711;53.196;19.638;2022-12-29T06:03:10;99438.94;;;4.96;75.03
68380;BME280;57711;53.196;19.638;2022-12-29T06:05:38;99442.25;;;4.97;75.05
68380;BME280;57711;53.196;19.638;2022-12-29T06:08:05;99444.85;;;4.98;75.20
68380;BME280;57711;53.196;19.638;2022-12-29T06:10:33;99446.05;;;4.97;75.09
68380;BME280;57711;53.196;19.638;2022-12-29T06:13:04;99441.29;;;4.98;75.09
68380;BME280;57711;53.196;19.638;2022-12-29T06:15:35;99443.87;;;4.99;75.06
68380;BME280;57711;53.196;19.638;2022-12-29T06:18:05;99436.52;;;4.99;75.13
68380;BME280;57711;53.196;19.638;2022-12-29T06:20:33;99428.45;;;4.99;75.25
68380;BME280;57711;53.196;19.638;2022-12-29T06:23:02;99422.59;;;4.99;75.21
68380;BME280;57711;53.196;19.638;2022-12-29T06:25:30;99421.78;;;5.00;75.10
68380;BME280;57711;53.196;19.638;2022-12-29T06:27:59;99409.73;;;5.03;75.00
68380;BME280;57711;53.196;19.638;2022-12-29T06:30:27;99410.27;;;5.05;75.10
68380;BME280;57711;53.196;19.638;2022-12-29T06:32:54;99398.23;;;5.03;75.05
68380;BME280;57711;53.196;19.638;2022-12-29T06:35:23;99398.06;;;5.01;75.07
68380;BME280;57711;53.196;19.638;2022-12-29T06:37:51;99387.04;;;5.00;75.20
68380;BME280;57711;53.196;19.638;2022-12-29T06:40:19;99380.64;;;5.01;75.28
68380;BME280;57711;53.196;19.638;2022-12-29T06:43:08;99374.61;;;5.03;75.28
68380;BME280;57711;53.196;19.638;2022-12-29T06:45:43;99381.67;;;5.04;75.29
68380;BME280;57711;53.196;19.638;2022-12-29T06:48:10;99386.98;;;5.05;75.38
68380;BME280;57711;53.196;19.638;2022-12-29T06:50:37;99386.42;;;5.05;75.34
68380;BME280;57711;53.196;19.638;2022-12-29T06:53:04;99380.33;;;5.05;75.33
68380;BME280;57711;53.196;19.638;2022-12-29T06:55:31;99381.79;;;5.07;75.42
68380;BME280;57711;53.196;19.638;2022-12-29T06:57:59;99379.90;;;5.08;75.35
68380;BME280;57711;53.196;19.638;2022-12-29T07:00:27;99388.55;;;5.08;75.33
68380;BME280;57711;53.196;19.638;2022-12-29T07:02:55;99396.13;;;5.07;75.40
68380;BME280;57711;53.196;19.638;2022-12-29T07:05:24;99396.70;;;5.07;75.32
68380;BME280;57711;53.196;19.638;2022-12-29T07:07:55;99400.77;;;5.07;75.33
68380;BME280;57711;53.196;19.638;2022-12-29T07:10:22;99399.42;;;5.08;75.33
68380;BME280;57711;53.196;19.638;2022-12-29T07:12:49;99400.09;;;5.09;75.28
68380;BME280;57711;53.196;19.638;2022-12-29T07:15:17;99399.52;;;5.09;75.43
68380;BME280;57711;53.196;19.638;2022-12-29T07:17:44;99397.77;;;5.09;75.28
68380;BME280;57711;53.196;19.638;2022-12-29T07:20:12;99396.52;;;5.11;75.31
68380;BME280;57711;53.196;19.638;2022-12-29T07:22:39;99389.86;;;5.14;75.17
68380;BME280;57711;53.196;19.638;2022-12-29T07:25:06;99378.80;;;5.15;75.30
68380;BME280;57711;53.196;19.638;2022-12-29T07:27:33;99378.80;;;5.15;75.31
68380;BME280;57711;53.196;19.638;2022-12-29T07:30:01;99373.35;;;5.14;75.35
68380;BME280;57711;53.196;19.638;2022-12-29T07:32:28;99378.63;;;5.15;75.33
68380;BME280;57711;53.196;19.638;2022-12-29T07:34:58;99378.14;;;5.17;75.31
68380;BME280;57711;53.196;19.638;2022-12-29T07:37:25;99381.48;;;5.18;75.26
68380;BME280;57711;53.196;19.638;2022-12-29T07:39:53;99385.13;;;5.19;75.41
68380;BME280;57711;53.196;19.638;2022-12-29T07:42:20;99390.89;;;5.21;75.28
68380;BME280;57711;53.196;19.638;2022-12-29T07:44:50;99404.59;;;5.22;75.30
68380;BME280;57711;53.196;19.638;2022-12-29T07:47:26;99408.92;;;5.24;75.31
68380;BME280;57711;53.196;19.638;2022-12-29T07:49:54;99419.50;;;5.26;75.41
68380;BME280;57711;53.196;19.638;2022-12-29T07:52:21;99423.42;;;5.28;75.41
68380;BME280;57711;53.196;19.638;2022-12-29T07:54:48;99430.81;;;5.30;75.39
68380;BME280;57711;53.196;19.638;2022-12-29T07:57:15;99422.48;;;5.32;75.32
68380;BME280;57711;53.196;19.638;2022-12-29T07:59:42;99414.38;;;5.34;75.34
68380;BME280;57711;53.196;19.638;2022-12-29T08:02:10;99415.21;;;5.37;75.38
68380;BME280;57711;53.196;19.638;2022-12-29T08:04:38;99414.15;;;5.39;75.24
68380;BME280;57711;53.196;19.638;2022-12-29T08:07:05;99414.94;;;5.41;75.32
68380;BME280;57711;53.196;19.638;2022-12-29T08:09:32;99410.05;;;5.41;75.27
68380;BME280;57711;53.196;19.638;2022-12-29T08:12:00;99407.48;;;5.44;75.23
68380;BME280;57711;53.196;19.638;2022-12-29T08:14:27;99399.19;;;5.47;75.33
68380;BME280;57711;53.196;19.638;2022-12-29T08:16:54;99391.00;;;5.48;75.29
68380;BME280;57711;53.196;19.638;2022-12-29T08:19:21;99392.89;;;5.49;75.23
68380;BME280;57711;53.196;19.638;2022-12-29T08:21:49;99403.49;;;5.51;75.37
68380;BME280;57711;53.196;19.638;2022-12-29T08:24:17;99401.67;;;5.54;75.36
68380;BME280;57711;53.196;19.638;2022-12-29T08:26:44;99405.88;;;5.57;75.33
68380;BME280;57711;53.196;19.638;2022-12-29T08:29:11;99407.54;;;5.61;75.25
68380;BME280;57711;53.196;19.638;2022-12-29T08:31:38;99411.39;;;5.62;75.28
68380;BME280;57711;53.196;19.638;2022-12-29T08:34:05;99410.98;;;5.63;75.24
68380;BME280;57711;53.196;19.638;2022-12-29T08:36:33;99416.19;;;5.65;75.37
68380;BME280;57711;53.196;19.638;2022-12-29T08:39:00;99419.02;;;5.67;75.24
68380;BME280;57711;53.196;19.638;2022-12-29T08:41:27;99419.58;;;5.69;75.21
68380;BME280;57711;53.196;19.638;2022-12-29T08:43:54;99425.08;;;5.70;75.20
68380;BME280;57711;53.196;19.638;2022-12-29T08:46:22;99423.96;;;5.71;75.14
68380;BME280;57711;53.196;19.638;2022-12-29T08:48:49;99425.45;;;5.72;75.21
68380;BME280;57711;53.196;19.638;2022-12-29T08:51:16;99421.92;;;5.74;75.13
68380;BME280;57711;53.196;19.638;2022-12-29T08:53:50;99409.27;;;5.75;75.14
68380;BME280;57711;53.196;19.638;2022-12-29T08:56:17;99404.70;;;5.76;75.20
68380;BME280;57711;53.196;19.638;2022-12-29T08:58:47;99393.52;;;5.77;75.17
68380;BME280;57711;53.196;19.638;2022-12-29T09:01:16;99392.09;;;5.79;75.29
68380;BME280;57711;53.196;19.638;2022-12-29T09:03:44;99403.02;;;5.81;75.22
68380;BME280;57711;53.196;19.638;2022-12-29T09:06:32;99405.50;;;5.83;75.26
68380;BME280;57711;53.196;19.638;2022-12-29T09:09:06;99402.14;;;5.85;75.17
68380;BME280;57711;53.196;19.638;2022-12-29T09:11:33;99400.45;;;5.86;75.18
68380;BME280;57711;53.196;19.638;2022-12-29T09:14:00;99389.83;;;5.89;75.29
68380;BME280;57711;53.196;19.638;2022-12-29T09:16:27;99384.86;;;5.92;75.20
68380;BME280;57711;53.196;19.638;2022-12-29T09:18:54;99381.58;;;5.95;75.22
68380;BME280;57711;53.196;19.638;2022-12-29T09:21:21;99382.21;;;5.96;75.09
68380;BME280;57711;53.196;19.638;2022-12-29T09:23:49;99383.75;;;5.97;75.13
68380;BME280;57711;53.196;19.638;2022-12-29T09:26:16;99385.30;;;6.00;75.22
68380;BME280;57711;53.196;19.638;2022-12-29T09:28:43;99380.66;;;6.04;75.12
68380;BME280;57711;53.196;19.638;2022-12-29T09:31:11;99376.70;;;6.06;75.06
68380;BME280;57711;53.196;19.638;2022-12-29T09:33:38;99379.39;;;6.09;75.19
68380;BME280;57711;53.196;19.638;2022-12-29T09:36:06;99381.27;;;6.10;75.23
68380;BME280;57711;53.196;19.638;2022-12-29T09:38:33;99389.15;;;6.12;75.18
68380;BME280;57711;53.196;19.638;2022-12-29T09:41:13;99386.59;;;6.15;75.12
68380;BME280;57711;53.196;19.638;2022-12-29T09:46:28;99386.04;;;6.17;75.05
68380;BME280;57711;53.196;19.638;2022-12-29T09:51:35;99378.67;;;6.19;75.07
68380;BME280;57711;53.196;19.638;2022-12-29T09:54:24;99372.45;;;6.20;75.02
68380;BME280;57711;53.196;19.638;2022-12-29T09:56:57;99367.20;;;6.23;75.15
68380;BME280;57711;53.196;19.638;2022-12-29T09:59:38;99367.58;;;6.25;75.20
68380;BME280;57711;53.196;19.638;2022-12-29T10:04:50;99359.79;;;6.34;75.15
68380;BME280;57711;53.196;19.638;2022-12-29T10:07:36;99359.52;;;6.37;75.22
68380;BME280;57711;53.196;19.638;2022-12-29T10:10:17;99362.16;;;6.40;75.02
68380;BME280;57711;53.196;19.638;2022-12-29T10:17:58;99348.78;;;6.48;74.87
68380;BME280;57711;53.196;19.638;2022-12-29T10:20:54;99353.90;;;6.51;74.90
68380;BME280;57711;53.196;19.638;2022-12-29T10:23:42;99360.23;;;6.52;75.00
68380;BME280;57711;53.196;19.638;2022-12-29T10:26:14;99347.19;;;6.53;75.01
68380;BME280;57711;53.196;19.638;2022-12-29T10:29:08;99338.25;;;6.55;75.01
68380;BME280;57711;53.196;19.638;2022-12-29T10:31:43;99347.23;;;6.57;74.78
68380;BME280;57711;53.196;19.638;2022-12-29T10:39:48;99343.19;;;6.58;74.84
68380;BME280;57711;53.196;19.638;2022-12-29T10:42:21;99337.10;;;6.60;74.82
68380;BME280;57711;53.196;19.638;2022-12-29T10:44:51;99335.04;;;6.61;74.85
68380;BME280;57711;53.196;19.638;2022-12-29T10:47:24;99336.29;;;6.61;74.85
68380;BME280;57711;53.196;19.638;2022-12-29T10:49:53;99339.34;;;6.61;74.80
68380;BME280;57711;53.196;19.638;2022-12-29T10:52:22;99340.87;;;6.62;74.76
68380;BME280;57711;53.196;19.638;2022-12-29T10:54:57;99340.20;;;6.63;74.86
68380;BME280;57711;53.196;19.638;2022-12-29T10:57:27;99338.88;;;6.64;74.72
68380;BME280;57711;53.196;19.638;2022-12-29T10:59:58;99342.45;;;6.64;74.90
68380;BME280;57711;53.196;19.638;2022-12-29T11:02:39;99342.29;;;6.64;74.62
68380;BME280;57711;53.196;19.638;2022-12-29T11:07:47;99329.55;;;6.66;74.69
68380;BME280;57711;53.196;19.638;2022-12-29T11:13:24;99326.77;;;6.67;74.62
68380;BME280;57711;53.196;19.638;2022-12-29T11:15:51;99325.88;;;6.69;74.86
68380;BME280;57711;53.196;19.638;2022-12-29T11:20:46;99327.10;;;6.74;74.63
68380;BME280;57711;53.196;19.638;2022-12-29T11:23:40;99329.35;;;6.74;74.77
68380;BME280;57711;53.196;19.638;2022-12-29T11:29:14;99323.50;;;6.77;74.61
68380;BME280;57711;53.196;19.638;2022-12-29T11:31:45;99328.02;;;6.79;74.67
68380;BME280;57711;53.196;19.638;2022-12-29T11:34:35;99327.84;;;6.79;74.51
68380;BME280;57711;53.196;19.638;2022-12-29T11:37:31;99329.73;;;6.78;74.54
68380;BME280;57711;53.196;19.638;2022-12-29T11:40:18;99329.80;;;6.79;74.53
68380;BME280;57711;53.196;19.638;2022-12-29T11:42:55;99322.11;;;6.82;74.51
68380;BME280;57711;53.196;19.638;2022-12-29T11:45:25;99324.14;;;6.83;74.47
68380;BME280;57711;53.196;19.638;2022-12-29T11:47:57;99321.59;;;6.83;74.56
68380;BME280;57711;53.196;19.638;2022-12-29T11:50:29;99322.19;;;6.84;74.55
68380;BME280;57711;53.196;19.638;2022-12-29T11:53:01;99319.02;;;6.86;74.42
68380;BME280;57711;53.196;19.638;2022-12-29T11:55:30;99314.77;;;6.87;74.54
68380;BME280;57711;53.196;19.638;2022-12-29T11:58:00;99308.41;;;6.88;74.36
68380;BME280;57711;53.196;19.638;2022-12-29T12:00:32;99308.82;;;6.87;74.47
68380;BME280;57711;53.196;19.638;2022-12-29T12:03:03;99310.17;;;6.88;74.51
68380;BME280;57711;53.196;19.638;2022-12-29T12:05:48;99310.17;;;6.90;74.50
68380;BME280;57711;53.196;19.638;2022-12-29T12:08:48;99309.15;;;6.91;74.62
68380;BME280;57711;53.196;19.638;2022-12-29T12:11:32;99308.55;;;6.92;74.37
68380;BME280;57711;53.196;19.638;2022-12-29T12:17:03;99305.36;;;6.94;74.55
68380;BME280;57711;53.196;19.638;2022-12-29T12:19:40;99300.92;;;6.95;74.32
68380;BME280;57711;53.196;19.638;2022-12-29T12:22:17;99295.33;;;6.97;74.48
68380;BME280;57711;53.196;19.638;2022-12-29T12:25:23;99290.27;;;6.98;74.44
68380;BME280;57711;53.196;19.638;2022-12-29T12:28:00;99292.73;;;6.98;74.57
68380;BME280;57711;53.196;19.638;2022-12-29T12:30:36;99288.30;;;7.02;74.54
68380;BME280;57711;53.196;19.638;2022-12-29T12:35:46;99282.39;;;7.05;74.37
68380;BME280;57711;53.196;19.638;2022-12-29T12:54:38;99273.70;;;7.30;74.45
68380;BME280;57711;53.196;19.638;2022-12-29T13:00:13;99280.77;;;7.41;74.25
68380;BME280;57711;53.196;19.638;2022-12-29T13:03:10;99277.86;;;7.43;74.41
68380;BME280;57711;53.196;19.638;2022-12-29T13:08:49;99277.13;;;7.40;74.11
68380;BME280;57711;53.196;19.638;2022-12-29T13:22:12;99272.33;;;7.29;73.95
68380;BME280;57711;53.196;19.638;2022-12-29T13:27:41;99277.70;;;7.28;74.08
68380;BME280;57711;53.196;19.638;2022-12-29T13:30:21;99280.35;;;7.26;74.22
68380;BME280;57711;53.196;19.638;2022-12-29T13:38:34;99288.61;;;7.32;74.07
68380;BME280;57711;53.196;19.638;2022-12-29T13:41:13;99289.70;;;7.34;74.23
68380;BME280;57711;53.196;19.638;2022-12-29T13:43:44;99293.33;;;7.35;73.95
68380;BME280;57711;53.196;19.638;2022-12-29T13:46:18;99291.39;;;7.37;74.09
68380;BME280;57711;53.196;19.638;2022-12-29T13:48:58;99289.54;;;7.40;74.18
68380;BME280;57711;53.196;19.638;2022-12-29T13:51:28;99295.27;;;7.42;74.02
68380;BME280;57711;53.196;19.638;2022-12-29T13:54:23;99302.26;;;7.42;74.04
68380;BME280;57711;53.196;19.638;2022-12-29T13:56:59;99300.08;;;7.41;74.03
68380;BME280;57711;53.196;19.638;2022-12-29T13:59:37;99303.88;;;7.40;74.00
68380;BME280;57711;53.196;19.638;2022-12-29T14:02:33;99307.00;;;7.42;74.07
68380;BME280;57711;53.196;19.638;2022-12-29T14:05:28;99308.79;;;7.43;74.07
68380;BME280;57711;53.196;19.638;2022-12-29T14:07:58;99304.73;;;7.45;73.93
68380;BME280;57711;53.196;19.638;2022-12-29T14:10:48;99299.76;;;7.44;73.81
68380;BME280;57711;53.196;19.638;2022-12-29T14:13:17;99298.42;;;7.45;73.94
68380;BME280;57711;53.196;19.638;2022-12-29T14:15:58;99299.52;;;7.47;74.02
68380;BME280;57711;53.196;19.638;2022-12-29T14:18:28;99307.46;;;7.46;73.79
68380;BME280;57711;53.196;19.638;2022-12-29T14:21:10;99311.00;;;7.45;73.84
68380;BME280;57711;53.196;19.638;2022-12-29T14:23:49;99310.83;;;7.43;73.92
68380;BME280;57711;53.196;19.638;2022-12-29T14:29:15;99314.95;;;7.41;73.84
68380;BME280;57711;53.196;19.638;2022-12-29T14:31:44;99312.95;;;7.41;73.82
68380;BME280;57711;53.196;19.638;2022-12-29T14:39:45;99309.27;;;7.36;73.93
68380;BME280;57711;53.196;19.638;2022-12-29T14:42:14;99312.19;;;7.35;73.72
68380;BME280;57711;53.196;19.638;2022-12-29T14:45:33;99312.58;;;7.35;73.73
68380;BME280;57711;53.196;19.638;2022-12-29T14:47:45;99312.34;;;7.34;73.75
68380;BME280;57711;53.196;19.638;2022-12-29T14:53:01;99312.83;;;7.30;73.76
68380;BME280;57711;53.196;19.638;2022-12-29T14:55:40;99315.81;;;7.30;73.73
68380;BME280;57711;53.196;19.638;2022-12-29T14:58:30;99310.30;;;7.27;73.66
68380;BME280;57711;53.196;19.638;2022-12-29T15:00:59;99305.76;;;7.24;73.60
68380;BME280;57711;53.196;19.638;2022-12-29T15:03:32;99308.13;;;7.19;73.66
68380;BME280;57711;53.196;19.638;2022-12-29T15:06:08;99312.06;;;7.15;73.50
68380;BME280;57711;53.196;19.638;2022-12-29T15:08:44;99316.03;;;7.13;73.63
68380;BME280;57711;53.196;19.638;2022-12-29T15:11:19;99321.33;;;7.10;73.59
68380;BME280;57711;53.196;19.638;2022-12-29T15:13:48;99320.78;;;7.06;73.54
68380;BME280;57711;53.196;19.638;2022-12-29T15:18:56;99313.95;;;7.00;73.61
68380;BME280;57711;53.196;19.638;2022-12-29T15:21:26;99313.23;;;6.98;73.43
68380;BME280;57711;53.196;19.638;2022-12-29T15:23:54;99312.19;;;6.96;73.54
68380;BME280;57711;53.196;19.638;2022-12-29T15:26:22;99311.60;;;6.92;73.52
68380;BME280;57711;53.196;19.638;2022-12-29T15:28:51;99308.84;;;6.89;73.44